sensor_id;sensor_type;location;lat;lon;timestamp;P1;durP1;ratioP1;P2;durP2;ratioP2
12437;SDS011;6283;51.330;12.374;2022-12-07T00:01:07;10.27;;;6.00;;
12437;SDS011;6283;51.330;12.374;2022-12-07T00:03:38;11.10;;;6.53;;
12437;SDS011;6283;51.330;12.374;2022-12-07T00:06:05;10.83;;;6.30;;
12437;SDS011;6283;51.330;12.374;2022-12-07T00:08:32;12.27;;;7.00;;
12437;SDS011;6283;51.330;12.374;2022-12-07T00:11:02;9.43;;;5.63;;
12437;SDS011;6283;51.330;12.374;2022-12-07T00:13:33;10.97;;;6.17;;
12437;SDS011;6283;51.330;12.374;2022-12-07T00:16:22;11.17;;;6.33;;
12437;SDS011;6283;51.330;12.374;2022-12-07T00:18:46;9.77;;;6.23;;
12437;SDS011;6283;51.330;12.374;2022-12-07T00:21:14;8.53;;;5.43;;
12437;SDS011;6283;51.330;12.374;2022-12-07T00:23:48;10.20;;;6.07;;
12437;SDS011;6283;51.330;12.374;2022-12-07T00:26:16;8.63;;;5.90;;
12437;SDS011;6283;51.330;12.374;2022-12-07T00:28:48;10.80;;;6.77;;
12437;SDS011;6283;51.330;12.374;2022-12-07T00:31:16;11.10;;;6.13;;
12437;SDS011;6283;51.330;12.374;2022-12-07T00:33:43;11.30;;;6.53;;
12437;SDS011;6283;51.330;12.374;2022-12-07T00:36:11;11.33;;;6.33;;
12437;SDS011;6283;51.330;12.374;2022-12-07T00:38:38;9.17;;;6.23;;
12437;SDS011;6283;51.330;12.374;2022-12-07T00:41:05;12.23;;;6.97;;
12437;SDS011;6283;51.330;12.374;2022-12-07T00:43:36;9.23;;;6.23;;
12437;SDS011;6283;51.330;12.374;2022-12-07T00:46:02;11.20;;;5.80;;
12437;SDS011;6283;51.330;12.374;2022-12-07T00:48:27;10.10;;;6.73;;
12437;SDS011;6283;51.330;12.374;2022-12-07T00:50:53;12.93;;;7.47;;
12437;SDS011;6283;51.330;12.374;2022-12-07T00:53:19;12.77;;;6.97;;
12437;SDS011;6283;51.330;12.374;2022-12-07T00:55:45;9.50;;;6.40;;
12437;SDS011;6283;51.330;12.374;2022-12-07T00:58:11;10.47;;;6.53;;
12437;SDS011;6283;51.330;12.374;2022-12-07T01:00:38;8.77;;;6.17;;
12437;SDS011;6283;51.330;12.374;2022-12-07T01:03:05;13.73;;;7.23;;
12437;SDS011;6283;51.330;12.374;2022-12-07T01:05:32;13.47;;;7.23;;
12437;SDS011;6283;51.330;12.374;2022-12-07T01:07:57;9.87;;;6.80;;
12437;SDS011;6283;51.330;12.374;2022-12-07T01:10:23;11.77;;;7.20;;
12437;SDS011;6283;51.330;12.374;2022-12-07T01:12:49;12.50;;;6.87;;
12437;SDS011;6283;51.330;12.374;2022-12-07T01:15:14;12.00;;;7.30;;
12437;SDS011;6283;51.330;12.374;2022-12-07T01:17:40;10.80;;;6.97;;
12437;SDS011;6283;51.330;12.374;2022-12-07T01:20:06;14.77;;;8.43;;
12437;SDS011;6283;51.330;12.374;2022-12-07T01:22:36;15.57;;;8.50;;
12437;SDS011;6283;51.330;12.374;2022-12-07T01:25:03;12.40;;;7.20;;
12437;SDS011;6283;51.330;12.374;2022-12-07T01:27:29;12.43;;;7.43;;
12437;SDS011;6283;51.330;12.374;2022-12-07T01:29:55;11.47;;;6.97;;
12437;SDS011;6283;51.330;12.374;2022-12-07T01:32:20;11.20;;;6.87;;
12437;SDS011;6283;51.330;12.374;2022-12-07T01:34:47;12.07;;;6.73;;
12437;SDS011;6283;51.330;12.374;2022-12-07T01:37:13;12.10;;;6.87;;
12437;SDS011;6283;51.330;12.374;2022-12-07T01:39:39;12.57;;;7.27;;
12437;SDS011;6283;51.330;12.374;2022-12-07T01:42:04;13.63;;;7.63;;
12437;SDS011;6283;51.330;12.374;2022-12-07T01:44:30;11.67;;;7.00;;
12437;SDS011;6283;51.330;12.374;2022-12-07T01:46:58;12.17;;;6.50;;
12437;SDS011;6283;51.330;12.374;2022-12-07T01:49:28;9.87;;;6.90;;
12437;SDS011;6283;51.330;12.374;2022-12-07T01:52:12;13.83;;;7.20;;
12437;SDS011;6283;51.330;12.374;2022-12-07T01:54:39;12.67;;;7.23;;
12437;SDS011;6283;51.330;12.374;2022-12-07T01:57:06;12.37;;;6.83;;
12437;SDS011;6283;51.330;12.374;2022-12-07T01:59:33;10.67;;;6.70;;
12437;SDS011;6283;51.330;12.374;2022-12-07T02:02:00;11.90;;;6.93;;
12437;SDS011;6283;51.330;12.374;2022-12-07T02:04:28;12.53;;;6.90;;
12437;SDS011;6283;51.330;12.374;2022-12-07T02:06:55;14.07;;;7.33;;
12437;SDS011;6283;51.330;12.374;2022-12-07T02:09:22;13.30;;;7.83;;
12437;SDS011;6283;51.330;12.374;2022-12-07T02:11:48;13.70;;;8.20;;
12437;SDS011;6283;51.330;12.374;2022-12-07T02:14:14;11.70;;;6.97;;
12437;SDS011;6283;51.330;12.374;2022-12-07T02:27:17;9.73;;;6.33;;
12437;SDS011;6283;51.330;12.374;2022-12-07T02:30:11;11.83;;;6.73;;
12437;SDS011;6283;51.330;12.374;2022-12-07T02:35:50;10.17;;;6.13;;
12437;SDS011;6283;51.330;12.374;2022-12-07T02:39:08;13.13;;;6.53;;
12437;SDS011;6283;51.330;12.374;2022-12-07T02:41:17;10.57;;;6.20;;
12437;SDS011;6283;51.330;12.374;2022-12-07T02:44:00;11.50;;;6.67;;
12437;SDS011;6283;51.330;12.374;2022-12-07T02:46:38;13.80;;;6.60;;
12437;SDS011;6283;51.330;12.374;2022-12-07T02:49:07;14.33;;;7.07;;
12437;SDS011;6283;51.330;12.374;2022-12-07T02:51:38;10.70;;;6.10;;
12437;SDS011;6283;51.330;12.374;2022-12-07T02:54:13;10.40;;;6.47;;
12437;SDS011;6283;51.330;12.374;2022-12-07T03:04:41;11.40;;;6.63;;
12437;SDS011;6283;51.330;12.374;2022-12-07T03:07:18;11.30;;;6.63;;
12437;SDS011;6283;51.330;12.374;2022-12-07T03:12:29;10.37;;;5.67;;
12437;SDS011;6283;51.330;12.374;2022-12-07T03:17:51;10.10;;;5.87;;
12437;SDS011;6283;51.330;12.374;2022-12-07T03:20:18;10.97;;;6.03;;
12437;SDS011;6283;51.330;12.374;2022-12-07T03:22:48;9.33;;;5.50;;
12437;SDS011;6283;51.330;12.374;2022-12-07T03:25:16;9.60;;;5.23;;
12437;SDS011;6283;51.330;12.374;2022-12-07T03:27:44;9.40;;;5.60;;
12437;SDS011;6283;51.330;12.374;2022-12-07T03:30:15;9.60;;;5.60;;
12437;SDS011;6283;51.330;12.374;2022-12-07T03:38:20;12.10;;;4.97;;
12437;SDS011;6283;51.330;12.374;2022-12-07T03:40:52;10.03;;;5.40;;
12437;SDS011;6283;51.330;12.374;2022-12-07T03:43:30;9.60;;;5.40;;
12437;SDS011;6283;51.330;12.374;2022-12-07T03:51:25;9.37;;;4.90;;
12437;SDS011;6283;51.330;12.374;2022-12-07T03:54:00;8.07;;;4.77;;
12437;SDS011;6283;51.330;12.374;2022-12-07T03:56:34;7.50;;;4.70;;
12437;SDS011;6283;51.330;12.374;2022-12-07T03:59:00;11.07;;;5.70;;
12437;SDS011;6283;51.330;12.374;2022-12-07T04:01:26;12.00;;;5.87;;
12437;SDS011;6283;51.330;12.374;2022-12-07T04:03:52;7.83;;;4.93;;
12437;SDS011;6283;51.330;12.374;2022-12-07T04:06:18;12.53;;;5.67;;
12437;SDS011;6283;51.330;12.374;2022-12-07T04:08:44;7.17;;;4.77;;
12437;SDS011;6283;51.330;12.374;2022-12-07T04:11:09;10.27;;;5.60;;
12437;SDS011;6283;51.330;12.374;2022-12-07T04:13:35;8.17;;;5.17;;
12437;SDS011;6283;51.330;12.374;2022-12-07T04:16:21;8.07;;;4.97;;
12437;SDS011;6283;51.330;12.374;2022-12-07T04:18:46;8.63;;;5.07;;
12437;SDS011;6283;51.330;12.374;2022-12-07T04:21:12;9.87;;;5.13;;
12437;SDS011;6283;51.330;12.374;2022-12-07T04:23:37;7.27;;;4.93;;
12437;SDS011;6283;51.330;12.374;2022-12-07T04:26:03;9.10;;;5.43;;
12437;SDS011;6283;51.330;12.374;2022-12-07T04:28:29;9.07;;;5.10;;
12437;SDS011;6283;51.330;12.374;2022-12-07T04:30:54;8.47;;;5.63;;
12437;SDS011;6283;51.330;12.374;2022-12-07T04:33:20;7.83;;;4.90;;
12437;SDS011;6283;51.330;12.374;2022-12-07T04:35:45;8.10;;;5.33;;
12437;SDS011;6283;51.330;12.374;2022-12-07T04:38:11;7.60;;;5.27;;
12437;SDS011;6283;51.330;12.374;2022-12-07T04:40:36;8.63;;;5.17;;
12437;SDS011;6283;51.330;12.374;2022-12-07T04:43:02;10.50;;;5.20;;
12437;SDS011;6283;51.330;12.374;2022-12-07T04:45:28;8.17;;;4.90;;
12437;SDS011;6283;51.330;12.374;2022-12-07T04:47:53;9.07;;;5.67;;
12437;SDS011;6283;51.330;12.374;2022-12-07T04:50:19;10.83;;;6.30;;
12437;SDS011;6283;51.330;12.374;2022-12-07T04:52:44;5.80;;;4.53;;
12437;SDS011;6283;51.330;12.374;2022-12-07T04:55:10;6.97;;;4.90;;
12437;SDS011;6283;51.330;12.374;2022-12-07T04:57:35;8.67;;;5.37;;
12437;SDS011;6283;51.330;12.374;2022-12-07T05:00:01;9.47;;;4.93;;
12437;SDS011;6283;51.330;12.374;2022-12-07T05:02:27;7.43;;;4.70;;
12437;SDS011;6283;51.330;12.374;2022-12-07T05:04:53;7.93;;;4.93;;
12437;SDS011;6283;51.330;12.374;2022-12-07T05:07:18;8.40;;;5.00;;
12437;SDS011;6283;51.330;12.374;2022-12-07T05:09:44;10.03;;;5.73;;
12437;SDS011;6283;51.330;12.374;2022-12-07T05:12:09;9.47;;;4.90;;
12437;SDS011;6283;51.330;12.374;2022-12-07T05:14:35;11.37;;;5.67;;
12437;SDS011;6283;51.330;12.374;2022-12-07T05:17:01;8.40;;;4.70;;
12437;SDS011;6283;51.330;12.374;2022-12-07T05:19:26;7.87;;;5.07;;
12437;SDS011;6283;51.330;12.374;2022-12-07T05:21:53;12.13;;;5.63;;
12437;SDS011;6283;51.330;12.374;2022-12-07T05:24:18;10.23;;;5.67;;
12437;SDS011;6283;51.330;12.374;2022-12-07T05:26:44;8.67;;;5.77;;
12437;SDS011;6283;51.330;12.374;2022-12-07T05:29:11;8.70;;;5.53;;
12437;SDS011;6283;51.330;12.374;2022-12-07T05:31:37;9.73;;;5.63;;
12437;SDS011;6283;51.330;12.374;2022-12-07T05:34:03;8.93;;;5.43;;
12437;SDS011;6283;51.330;12.374;2022-12-07T05:36:29;10.30;;;6.23;;
12437;SDS011;6283;51.330;12.374;2022-12-07T05:38:56;9.50;;;5.43;;
12437;SDS011;6283;51.330;12.374;2022-12-07T05:41:22;10.93;;;5.90;;
12437;SDS011;6283;51.330;12.374;2022-12-07T05:44:06;10.60;;;6.30;;
12437;SDS011;6283;51.330;12.374;2022-12-07T05:46:32;11.70;;;6.17;;
12437;SDS011;6283;51.330;12.374;2022-12-07T05:48:57;12.27;;;6.97;;
12437;SDS011;6283;51.330;12.374;2022-12-07T05:51:23;9.50;;;6.90;;
12437;SDS011;6283;51.330;12.374;2022-12-07T05:53:49;10.30;;;6.50;;
12437;SDS011;6283;51.330;12.374;2022-12-07T05:56:14;10.77;;;6.43;;
12437;SDS011;6283;51.330;12.374;2022-12-07T05:58:40;10.97;;;6.60;;
12437;SDS011;6283;51.330;12.374;2022-12-07T06:01:25;11.43;;;6.53;;
12437;SDS011;6283;51.330;12.374;2022-12-07T06:03:50;7.53;;;5.70;;
12437;SDS011;6283;51.330;12.374;2022-12-07T06:06:16;10.23;;;6.37;;
12437;SDS011;6283;51.330;12.374;2022-12-07T06:08:42;11.63;;;6.60;;
12437;SDS011;6283;51.330;12.374;2022-12-07T06:11:07;10.90;;;6.83;;
12437;SDS011;6283;51.330;12.374;2022-12-07T06:13:51;13.73;;;7.70;;
12437;SDS011;6283;51.330;12.374;2022-12-07T06:16:17;11.43;;;7.00;;
12437;SDS011;6283;51.330;12.374;2022-12-07T06:18:43;11.57;;;7.13;;
12437;SDS011;6283;51.330;12.374;2022-12-07T06:21:09;11.23;;;6.60;;
12437;SDS011;6283;51.330;12.374;2022-12-07T06:23:38;11.17;;;7.33;;
12437;SDS011;6283;51.330;12.374;2022-12-07T06:26:03;11.00;;;7.10;;
12437;SDS011;6283;51.330;12.374;2022-12-07T06:28:29;11.17;;;7.43;;
12437;SDS011;6283;51.330;12.374;2022-12-07T06:30:58;13.40;;;7.30;;
12437;SDS011;6283;51.330;12.374;2022-12-07T06:33:24;12.20;;;7.60;;
12437;SDS011;6283;51.330;12.374;2022-12-07T06:35:50;11.30;;;6.77;;
12437;SDS011;6283;51.330;12.374;2022-12-07T06:38:16;14.07;;;8.43;;
12437;SDS011;6283;51.330;12.374;2022-12-07T06:40:41;15.00;;;8.40;;
12437;SDS011;6283;51.330;12.374;2022-12-07T06:43:07;12.37;;;8.20;;
12437;SDS011;6283;51.330;12.374;2022-12-07T06:45:33;13.90;;;7.40;;
12437;SDS011;6283;51.330;12.374;2022-12-07T06:47:58;15.30;;;8.00;;
12437;SDS011;6283;51.330;12.374;2022-12-07T06:50:24;14.00;;;7.93;;
12437;SDS011;6283;51.330;12.374;2022-12-07T06:52:50;15.33;;;8.20;;
12437;SDS011;6283;51.330;12.374;2022-12-07T06:55:16;14.60;;;9.00;;
12437;SDS011;6283;51.330;12.374;2022-12-07T06:57:42;12.20;;;8.13;;
12437;SDS011;6283;51.330;12.374;2022-12-07T07:00:08;13.80;;;8.70;;
12437;SDS011;6283;51.330;12.374;2022-12-07T07:02:34;13.27;;;8.50;;
12437;SDS011;6283;51.330;12.374;2022-12-07T07:04:59;12.77;;;7.63;;
12437;SDS011;6283;51.330;12.374;2022-12-07T07:07:25;13.97;;;8.40;;
12437;SDS011;6283;51.330;12.374;2022-12-07T07:09:51;13.33;;;8.33;;
12437;SDS011;6283;51.330;12.374;2022-12-07T07:12:16;12.87;;;8.07;;
12437;SDS011;6283;51.330;12.374;2022-12-07T07:14:42;13.17;;;8.83;;
12437;SDS011;6283;51.330;12.374;2022-12-07T07:17:08;16.10;;;8.20;;
12437;SDS011;6283;51.330;12.374;2022-12-07T07:19:34;13.03;;;8.27;;
12437;SDS011;6283;51.330;12.374;2022-12-07T07:21:59;13.00;;;8.00;;
12437;SDS011;6283;51.330;12.374;2022-12-07T07:24:28;14.57;;;8.67;;
12437;SDS011;6283;51.330;12.374;2022-12-07T07:26:54;15.00;;;8.43;;
12437;SDS011;6283;51.330;12.374;2022-12-07T07:29:20;17.43;;;8.67;;
12437;SDS011;6283;51.330;12.374;2022-12-07T07:31:45;14.57;;;8.13;;
12437;SDS011;6283;51.330;12.374;2022-12-07T07:34:11;13.83;;;8.23;;
12437;SDS011;6283;51.330;12.374;2022-12-07T07:36:37;15.23;;;9.00;;
12437;SDS011;6283;51.330;12.374;2022-12-07T07:39:03;13.73;;;7.73;;
12437;SDS011;6283;51.330;12.374;2022-12-07T07:41:29;13.20;;;7.57;;
12437;SDS011;6283;51.330;12.374;2022-12-07T07:43:55;13.80;;;8.07;;
12437;SDS011;6283;51.330;12.374;2022-12-07T07:46:21;13.33;;;8.57;;
12437;SDS011;6283;51.330;12.374;2022-12-07T07:48:46;15.40;;;9.00;;
12437;SDS011;6283;51.330;12.374;2022-12-07T07:51:12;12.93;;;8.50;;
12437;SDS011;6283;51.330;12.374;2022-12-07T07:53:38;12.73;;;7.80;;
12437;SDS011;6283;51.330;12.374;2022-12-07T07:56:03;12.87;;;7.73;;
12437;SDS011;6283;51.330;12.374;2022-12-07T07:58:29;11.57;;;7.93;;
12437;SDS011;6283;51.330;12.374;2022-12-07T08:00:55;15.87;;;7.67;;
12437;SDS011;6283;51.330;12.374;2022-12-07T08:03:20;12.73;;;7.80;;
12437;SDS011;6283;51.330;12.374;2022-12-07T08:05:46;12.33;;;7.47;;
12437;SDS011;6283;51.330;12.374;2022-12-07T08:08:12;14.63;;;8.67;;
12437;SDS011;6283;51.330;12.374;2022-12-07T08:10:37;14.27;;;8.10;;
12437;SDS011;6283;51.330;12.374;2022-12-07T08:13:06;14.23;;;7.77;;
12437;SDS011;6283;51.330;12.374;2022-12-07T08:15:41;11.77;;;7.13;;
12437;SDS011;6283;51.330;12.374;2022-12-07T08:18:10;10.97;;;7.53;;
12437;SDS011;6283;51.330;12.374;2022-12-07T08:20:36;13.07;;;7.03;;
12437;SDS011;6283;51.330;12.374;2022-12-07T08:23:03;10.77;;;7.10;;
12437;SDS011;6283;51.330;12.374;2022-12-07T08:25:29;13.07;;;7.53;;
12437;SDS011;6283;51.330;12.374;2022-12-07T08:27:55;14.50;;;7.43;;
12437;SDS011;6283;51.330;12.374;2022-12-07T08:30:20;11.53;;;7.43;;
12437;SDS011;6283;51.330;12.374;2022-12-07T08:32:47;11.47;;;7.00;;
12437;SDS011;6283;51.330;12.374;2022-12-07T08:35:13;11.03;;;7.13;;
12437;SDS011;6283;51.330;12.374;2022-12-07T08:37:40;13.37;;;7.30;;
12437;SDS011;6283;51.330;12.374;2022-12-07T08:40:06;14.00;;;7.77;;
12437;SDS011;6283;51.330;12.374;2022-12-07T08:42:33;13.30;;;7.03;;
12437;SDS011;6283;51.330;12.374;2022-12-07T08:45:12;11.37;;;7.10;;
12437;SDS011;6283;51.330;12.374;2022-12-07T08:47:50;12.27;;;6.33;;
12437;SDS011;6283;51.330;12.374;2022-12-07T08:50:21;9.67;;;5.83;;
12437;SDS011;6283;51.330;12.374;2022-12-07T08:52:56;10.00;;;6.40;;
12437;SDS011;6283;51.330;12.374;2022-12-07T08:55:23;10.53;;;5.73;;
12437;SDS011;6283;51.330;12.374;2022-12-07T08:57:50;13.43;;;6.50;;
12437;SDS011;6283;51.330;12.374;2022-12-07T09:00:16;11.03;;;5.93;;
12437;SDS011;6283;51.330;12.374;2022-12-07T09:02:43;11.17;;;6.20;;
12437;SDS011;6283;51.330;12.374;2022-12-07T09:05:10;9.53;;;5.77;;
12437;SDS011;6283;51.330;12.374;2022-12-07T09:07:35;11.40;;;5.57;;
12437;SDS011;6283;51.330;12.374;2022-12-07T09:10:03;8.80;;;5.63;;
12437;SDS011;6283;51.330;12.374;2022-12-07T09:12:29;10.30;;;5.90;;
12437;SDS011;6283;51.330;12.374;2022-12-07T09:14:55;13.53;;;6.90;;
12437;SDS011;6283;51.330;12.374;2022-12-07T09:17:21;9.53;;;6.03;;
12437;SDS011;6283;51.330;12.374;2022-12-07T09:19:49;10.63;;;6.00;;
12437;SDS011;6283;51.330;12.374;2022-12-07T09:22:15;12.40;;;6.47;;
12437;SDS011;6283;51.330;12.374;2022-12-07T09:24:41;11.53;;;5.90;;
12437;SDS011;6283;51.330;12.374;2022-12-07T09:27:06;9.50;;;5.67;;
12437;SDS011;6283;51.330;12.374;2022-12-07T09:29:32;9.80;;;5.50;;
12437;SDS011;6283;51.330;12.374;2022-12-07T09:31:58;10.30;;;6.00;;
12437;SDS011;6283;51.330;12.374;2022-12-07T09:34:23;11.30;;;6.27;;
12437;SDS011;6283;51.330;12.374;2022-12-07T09:36:51;8.80;;;5.50;;
12437;SDS011;6283;51.330;12.374;2022-12-07T09:39:16;12.30;;;5.80;;
12437;SDS011;6283;51.330;12.374;2022-12-07T09:41:43;12.70;;;6.10;;
12437;SDS011;6283;51.330;12.374;2022-12-07T09:44:12;9.77;;;5.67;;
12437;SDS011;6283;51.330;12.374;2022-12-07T09:46:41;10.33;;;5.63;;
12437;SDS011;6283;51.330;12.374;2022-12-07T09:49:18;9.80;;;6.30;;
12437;SDS011;6283;51.330;12.374;2022-12-07T09:51:45;9.73;;;6.00;;
12437;SDS011;6283;51.330;12.374;2022-12-07T09:54:13;9.13;;;5.53;;
12437;SDS011;6283;51.330;12.374;2022-12-07T09:56:40;10.17;;;5.83;;
12437;SDS011;6283;51.330;12.374;2022-12-07T09:59:09;11.10;;;6.40;;
12437;SDS011;6283;51.330;12.374;2022-12-07T10:01:41;12.20;;;6.40;;
12437;SDS011;6283;51.330;12.374;2022-12-07T10:04:16;8.53;;;5.60;;
12437;SDS011;6283;51.330;12.374;2022-12-07T10:06:44;8.43;;;5.77;;
12437;SDS011;6283;51.330;12.374;2022-12-07T10:09:14;10.17;;;5.90;;
12437;SDS011;6283;51.330;12.374;2022-12-07T10:14:40;10.53;;;5.63;;
12437;SDS011;6283;51.330;12.374;2022-12-07T10:17:30;11.13;;;6.43;;
12437;SDS011;6283;51.330;12.374;2022-12-07T10:23:04;9.33;;;5.73;;
12437;SDS011;6283;51.330;12.374;2022-12-07T10:25:38;9.87;;;5.80;;
12437;SDS011;6283;51.330;12.374;2022-12-07T10:39:04;8.53;;;5.67;;
12437;SDS011;6283;51.330;12.374;2022-12-07T10:44:28;7.10;;;4.40;;
12437;SDS011;6283;51.330;12.374;2022-12-07T10:49:53;9.30;;;4.37;;
12437;SDS011;6283;51.330;12.374;2022-12-07T11:03:53;6.53;;;4.03;;
12437;SDS011;6283;51.330;12.374;2022-12-07T11:06:46;9.37;;;4.10;;
12437;SDS011;6283;51.330;12.374;2022-12-07T11:12:11;9.07;;;4.33;;
12437;SDS011;6283;51.330;12.374;2022-12-07T11:15:14;6.57;;;4.30;;
12437;SDS011;6283;51.330;12.374;2022-12-07T11:22:58;6.20;;;3.73;;
12437;SDS011;6283;51.330;12.374;2022-12-07T11:25:50;9.50;;;4.10;;
12437;SDS011;6283;51.330;12.374;2022-12-07T11:28:27;7.23;;;4.57;;
12437;SDS011;6283;51.330;12.374;2022-12-07T11:31:18;11.07;;;4.70;;
12437;SDS011;6283;51.330;12.374;2022-12-07T11:36:47;13.03;;;5.77;;
12437;SDS011;6283;51.330;12.374;2022-12-07T11:41:47;8.97;;;4.63;;
12437;SDS011;6283;51.330;12.374;2022-12-07T11:47:17;7.43;;;5.00;;
12437;SDS011;6283;51.330;12.374;2022-12-07T11:54:55;7.57;;;4.00;;
12437;SDS011;6283;51.330;12.374;2022-12-07T11:57:30;7.13;;;4.00;;
12437;SDS011;6283;51.330;12.374;2022-12-07T12:00:04;8.27;;;4.40;;
12437;SDS011;6283;51.330;12.374;2022-12-07T12:02:39;6.10;;;3.80;;
12437;SDS011;6283;51.330;12.374;2022-12-07T12:05:27;8.67;;;4.03;;
12437;SDS011;6283;51.330;12.374;2022-12-07T12:16:33;5.47;;;3.20;;
12437;SDS011;6283;51.330;12.374;2022-12-07T12:19:32;4.00;;;2.53;;
12437;SDS011;6283;51.330;12.374;2022-12-07T12:22:18;4.07;;;3.20;;
12437;SDS011;6283;51.330;12.374;2022-12-07T12:24:48;4.20;;;2.70;;
12437;SDS011;6283;51.330;12.374;2022-12-07T12:27:50;4.00;;;2.60;;
12437;SDS011;6283;51.330;12.374;2022-12-07T12:33:06;2.50;;;2.30;;
12437;SDS011;6283;51.330;12.374;2022-12-07T12:44:01;3.73;;;2.37;;
12437;SDS011;6283;51.330;12.374;2022-12-07T12:54:21;5.77;;;2.27;;
12437;SDS011;6283;51.330;12.374;2022-12-07T13:02:21;2.57;;;1.70;;
12437;SDS011;6283;51.330;12.374;2022-12-07T13:04:53;2.23;;;1.70;;
12437;SDS011;6283;51.330;12.374;2022-12-07T13:18:02;2.80;;;1.50;;
12437;SDS011;6283;51.330;12.374;2022-12-07T13:20:58;2.40;;;1.70;;
12437;SDS011;6283;51.330;12.374;2022-12-07T13:23:29;2.83;;;1.43;;
12437;SDS011;6283;51.330;12.374;2022-12-07T13:31:40;1.50;;;1.20;;
12437;SDS011;6283;51.330;12.374;2022-12-07T13:37:08;2.00;;;1.37;;
12437;SDS011;6283;51.330;12.374;2022-12-07T13:39:58;2.33;;;1.53;;
12437;SDS011;6283;51.330;12.374;2022-12-07T13:42:33;1.47;;;1.23;;
12437;SDS011;6283;51.330;12.374;2022-12-07T13:45:01;3.00;;;1.30;;
12437;SDS011;6283;51.330;12.374;2022-12-07T13:47:48;2.57;;;1.40;;
12437;SDS011;6283;51.330;12.374;2022-12-07T13:50:24;2.23;;;1.30;;
12437;SDS011;6283;51.330;12.374;2022-12-07T13:52:55;1.80;;;1.20;;
12437;SDS011;6283;51.330;12.374;2022-12-07T13:55:21;2.60;;;1.63;;
12437;SDS011;6283;51.330;12.374;2022-12-07T13:57:48;4.60;;;1.40;;
12437;SDS011;6283;51.330;12.374;2022-12-07T14:00:19;2.37;;;1.20;;
12437;SDS011;6283;51.330;12.374;2022-12-07T14:05:25;3.13;;;1.87;;
12437;SDS011;6283;51.330;12.374;2022-12-07T14:10:29;1.60;;;1.30;;
12437;SDS011;6283;51.330;12.374;2022-12-07T14:12:55;2.47;;;1.10;;
12437;SDS011;6283;51.330;12.374;2022-12-07T14:15:29;2.97;;;1.17;;
12437;SDS011;6283;51.330;12.374;2022-12-07T14:17:57;4.87;;;1.30;;
12437;SDS011;6283;51.330;12.374;2022-12-07T14:20:40;5.40;;;1.63;;
12437;SDS011;6283;51.330;12.374;2022-12-07T14:23:20;3.27;;;1.33;;
12437;SDS011;6283;51.330;12.374;2022-12-07T14:25:50;2.70;;;1.50;;
12437;SDS011;6283;51.330;12.374;2022-12-07T14:28:36;2.80;;;1.50;;
12437;SDS011;6283;51.330;12.374;2022-12-07T14:31:02;3.20;;;1.40;;
12437;SDS011;6283;51.330;12.374;2022-12-07T14:33:33;3.83;;;1.43;;
12437;SDS011;6283;51.330;12.374;2022-12-07T14:35:58;4.10;;;1.40;;
12437;SDS011;6283;51.330;12.374;2022-12-07T14:38:25;1.97;;;1.37;;
12437;SDS011;6283;51.330;12.374;2022-12-07T14:40:53;3.03;;;1.40;;
12437;SDS011;6283;51.330;12.374;2022-12-07T14:43:40;2.93;;;1.43;;
12437;SDS011;6283;51.330;12.374;2022-12-07T14:46:06;3.70;;;1.67;;
12437;SDS011;6283;51.330;12.374;2022-12-07T14:48:31;3.17;;;1.47;;
12437;SDS011;6283;51.330;12.374;2022-12-07T14:50:57;8.17;;;1.60;;
12437;SDS011;6283;51.330;12.374;2022-12-07T14:53:25;2.57;;;1.60;;
12437;SDS011;6283;51.330;12.374;2022-12-07T14:55:54;4.13;;;1.40;;
12437;SDS011;6283;51.330;12.374;2022-12-07T14:58:20;3.77;;;1.67;;
12437;SDS011;6283;51.330;12.374;2022-12-07T15:00:46;1.63;;;1.30;;
12437;SDS011;6283;51.330;12.374;2022-12-07T15:03:12;3.67;;;1.30;;
12437;SDS011;6283;51.330;12.374;2022-12-07T15:05:38;3.17;;;1.43;;
12437;SDS011;6283;51.330;12.374;2022-12-07T15:08:06;1.47;;;1.23;;
12437;SDS011;6283;51.330;12.374;2022-12-07T15:10:33;4.57;;;1.47;;
12437;SDS011;6283;51.330;12.374;2022-12-07T15:13:03;5.57;;;1.60;;
12437;SDS011;6283;51.330;12.374;2022-12-07T15:15:47;1.10;;;1.00;;
12437;SDS011;6283;51.330;12.374;2022-12-07T15:18:14;3.67;;;1.30;;
12437;SDS011;6283;51.330;12.374;2022-12-07T15:20:41;1.30;;;1.20;;
12437;SDS011;6283;51.330;12.374;2022-12-07T15:23:06;2.43;;;1.23;;
12437;SDS011;6283;51.330;12.374;2022-12-07T15:25:32;2.07;;;1.10;;
12437;SDS011;6283;51.330;12.374;2022-12-07T15:27:58;2.70;;;1.13;;
12437;SDS011;6283;51.330;12.374;2022-12-07T15:30:24;2.17;;;1.50;;
12437;SDS011;6283;51.330;12.374;2022-12-07T15:32:50;3.00;;;1.67;;
12437;SDS011;6283;51.330;12.374;2022-12-07T15:35:16;1.87;;;1.50;;
12437;SDS011;6283;51.330;12.374;2022-12-07T15:37:41;4.53;;;1.40;;
12437;SDS011;6283;51.330;12.374;2022-12-07T15:40:07;1.93;;;1.30;;
12437;SDS011;6283;51.330;12.374;2022-12-07T15:42:35;1.97;;;1.20;;
12437;SDS011;6283;51.330;12.374;2022-12-07T15:45:01;3.17;;;1.30;;
12437;SDS011;6283;51.330;12.374;2022-12-07T15:47:30;3.23;;;1.20;;
12437;SDS011;6283;51.330;12.374;2022-12-07T15:49:56;1.93;;;1.37;;
12437;SDS011;6283;51.330;12.374;2022-12-07T15:52:22;2.37;;;1.40;;
12437;SDS011;6283;51.330;12.374;2022-12-07T15:54:48;2.37;;;1.30;;
12437;SDS011;6283;51.330;12.374;2022-12-07T15:57:13;2.33;;;1.57;;
12437;SDS011;6283;51.330;12.374;2022-12-07T15:59:39;5.73;;;1.77;;
12437;SDS011;6283;51.330;12.374;2022-12-07T16:02:05;5.87;;;1.40;;
12437;SDS011;6283;51.330;12.374;2022-12-07T16:04:30;3.23;;;1.70;;
12437;SDS011;6283;51.330;12.374;2022-12-07T16:06:56;3.27;;;1.40;;
12437;SDS011;6283;51.330;12.374;2022-12-07T16:09:22;3.43;;;1.17;;
12437;SDS011;6283;51.330;12.374;2022-12-07T16:11:48;2.63;;;1.70;;
12437;SDS011;6283;51.330;12.374;2022-12-07T16:14:15;2.43;;;1.47;;
12437;SDS011;6283;51.330;12.374;2022-12-07T16:16:40;3.70;;;1.60;;
12437;SDS011;6283;51.330;12.374;2022-12-07T16:19:06;4.30;;;2.00;;
12437;SDS011;6283;51.330;12.374;2022-12-07T16:21:33;3.20;;;1.80;;
12437;SDS011;6283;51.330;12.374;2022-12-07T16:24:00;2.70;;;1.73;;
12437;SDS011;6283;51.330;12.374;2022-12-07T16:26:26;5.63;;;2.17;;
12437;SDS011;6283;51.330;12.374;2022-12-07T16:28:52;3.77;;;1.83;;
12437;SDS011;6283;51.330;12.374;2022-12-07T16:31:22;3.63;;;1.80;;
12437;SDS011;6283;51.330;12.374;2022-12-07T16:33:49;4.60;;;2.27;;
12437;SDS011;6283;51.330;12.374;2022-12-07T16:36:18;3.77;;;2.07;;
12437;SDS011;6283;51.330;12.374;2022-12-07T16:38:46;4.87;;;1.63;;
12437;SDS011;6283;51.330;12.374;2022-12-07T16:41:11;3.50;;;1.73;;
12437;SDS011;6283;51.330;12.374;2022-12-07T16:43:37;3.53;;;2.00;;
12437;SDS011;6283;51.330;12.374;2022-12-07T16:46:03;3.50;;;1.90;;
12437;SDS011;6283;51.330;12.374;2022-12-07T16:48:29;4.70;;;2.10;;
12437;SDS011;6283;51.330;12.374;2022-12-07T16:50:55;3.33;;;1.57;;
12437;SDS011;6283;51.330;12.374;2022-12-07T16:53:22;3.60;;;1.97;;
12437;SDS011;6283;51.330;12.374;2022-12-07T16:55:49;1.83;;;1.70;;
12437;SDS011;6283;51.330;12.374;2022-12-07T16:58:15;6.00;;;3.03;;
12437;SDS011;6283;51.330;12.374;2022-12-07T17:00:42;3.50;;;1.77;;
12437;SDS011;6283;51.330;12.374;2022-12-07T17:03:08;3.10;;;1.53;;
12437;SDS011;6283;51.330;12.374;2022-12-07T17:05:41;3.23;;;1.83;;
12437;SDS011;6283;51.330;12.374;2022-12-07T17:08:07;2.63;;;2.10;;
12437;SDS011;6283;51.330;12.374;2022-12-07T17:10:35;5.97;;;2.20;;
12437;SDS011;6283;51.330;12.374;2022-12-07T17:13:05;6.13;;;2.37;;
12437;SDS011;6283;51.330;12.374;2022-12-07T17:18:29;3.80;;;2.20;;
12437;SDS011;6283;51.330;12.374;2022-12-07T17:21:01;7.33;;;2.93;;
12437;SDS011;6283;51.330;12.374;2022-12-07T17:23:31;7.63;;;2.43;;
12437;SDS011;6283;51.330;12.374;2022-12-07T17:26:18;5.17;;;2.63;;